CST,Max TemperatureF,Mean TemperatureF,Min TemperatureF,Max Dew PointF,MeanDew PointF,Min DewpointF,Max Humidity, Mean Humidity, Min Humidity, Max Sea Level PressureIn, Mean Sea Level PressureIn, Min Sea Level PressureIn, Max VisibilityMiles, Mean VisibilityMiles, Min VisibilityMiles, Max Wind SpeedMPH, Mean Wind SpeedMPH, Max Gust SpeedMPH,PrecipitationIn, CloudCover, Events, WindDirDegrees
2010-11-1,53,42,30,32,30,28,92,67,38,30.44,30.41,30.34,10,10,8,7,2,,0.00,0,,150
2010-11-2,57,44,33,35,32,27,79,60,42,30.43,30.30,30.06,10,10,9,17,6,22,0.00,1,,185
2010-11-3,55,48,42,38,35,32,82,61,43,30.07,30.03,29.98,10,10,10,22,9,29,0.00,1,,296
2010-11-4,46,40,34,35,25,15,74,53,30,30.19,30.10,30.04,10,10,10,20,13,29,0.00,1,,334
2010-11-5,46,37,28,22,17,15,72,48,30,30.23,30.19,30.15,10,10,8,10,5,,0.00,0,,322
2010-11-6,57,44,32,28,24,20,61,46,30,30.16,30.08,30.00,10,10,10,22,10,31,0.00,0,,186
2010-11-7,63,50,37,38,32,27,70,52,38,30.02,29.95,29.86,10,10,10,14,8,,0.00,0,,155
2010-11-8,63,54,45,39,37,34,66,55,40,29.81,29.73,29.69,10,10,10,14,8,,0.00,0,,138
2010-11-9,69,56,44,47,43,37,76,62,44,29.80,29.76,29.72,10,10,9,15,8,20,0.00,0,,118
2010-11-10,66,56,44,54,47,38,88,74,54,30.03,29.84,29.76,10,10,10,20,12,30,0.02,5,Thunderstorm,188
2010-11-11,52,44,35,34,32,29,85,66,41,30.45,30.28,30.05,10,10,10,17,10,25,0.00,2,,249
2010-11-12,44,40,35,34,31,28,93,70,53,30.47,30.40,30.28,10,10,5,14,5,22,0.00,8,Rain-Snow,54
2010-11-13,35,34,33,35,33,32,100,96,87,30.28,29.95,29.77,10,2,0,17,13,26,0.67,8,Fog-Snow,11
2010-11-14,35,34,32,34,30,28,93,86,79,29.82,29.78,29.73,10,8,2,17,11,23,0.01,8,Snow,264
2010-11-15,37,32,26,30,28,25,96,87,73,29.81,29.75,29.68,10,6,1,7,3,,0.00,4,,50
2010-11-16,35,32,30,32,29,27,93,84,75,29.87,29.73,29.65,10,5,1,9,5,,0.01,8,Snow,28
2010-11-17,37,34,30,28,26,21,82,73,59,30.33,30.15,29.85,10,10,10,13,8,21,0.00,6,,335
2010-11-18,30,28,27,25,20,16,82,72,63,30.40,30.24,29.98,10,10,10,16,8,,0.00,7,,136
2010-11-19,37,30,23,32,24,8,86,70,50,30.27,29.96,29.80,10,9,7,18,13,25,0.00,4,,264
2010-11-20,28,23,18,25,13,7,93,66,55,30.40,30.26,30.07,10,9,3,16,10,21,0.01,3,Rain,48
2010-11-21,34,30,26,32,29,24,96,90,80,30.08,29.85,29.71,10,6,1,12,9,,0.02,8,Rain,31
2010-11-22,30,21,12,28,21,7,96,87,73,30.01,29.83,29.70,10,7,2,17,8,26,0.00,8,Rain-Snow,319
2010-11-23,21,16,10,13,9,6,85,77,68,30.32,30.20,29.97,10,10,10,16,11,24,0.00,2,,259
2010-11-24,32,26,19,31,26,13,100,87,69,30.19,29.79,29.68,10,5,0,21,11,31,0.14,7,Fog-Snow,123
2010-11-25,19,11,3,16,3,-4,86,69,59,29.94,29.85,29.74,10,10,10,20,13,29,0.00,2,,257
2010-11-26,25,18,10,9,5,3,73,60,45,30.01,29.90,29.82,10,10,10,13,9,20,0.00,0,,275
2010-11-27,28,17,6,23,9,0,81,69,53,30.13,30.07,29.98,10,10,10,8,5,,0.00,0,,175
2010-11-28,43,36,28,31,27,24,85,67,55,29.96,29.79,29.68,10,10,10,20,12,33,0.00,0,,139
2010-11-29,41,37,32,37,34,31,100,89,67,29.68,29.59,29.51,10,4,0,20,10,26,0.46,7,Fog-Rain-Snow,103
2010-11-30,32,24,17,30,18,10,100,80,68,29.89,29.69,29.52,10,6,1,20,11,29,0.01,8,Snow,291